Flight Track Log - Related Links

Times and Time Zones

All times are in EDT time to prevent confusion due to time zone crossing. See the SWA2966 flight status page for this flight to view local times or setup timezone preferences in your user account.

Time Position Orientation Groundspeed Altitude Reporting Facility
EDT Latitude Longitude Course Direction KTS MPH feet Rate Location/Type
Sat 05:11:56 PM 47.4681 -122.3086 358° North 171 197 1,400  Level Seattle Center
Sat 05:12:39 PM 47.5064 -122.3106 358° North 199 229 2,700 2,135 Climbing Seattle Center
Sat 05:13:40 PM 47.5731 -122.3092 North 242 278 5,100 2,508 Climbing Seattle Center
Sat 05:14:41 PM 47.6119 -122.2369 51° Northeast 260 299 7,800 2,557 Climbing Seattle Center
Sat 05:15:42 PM 47.5522 -122.1850 150° Southeast 272 313 10,300 2,213 Climbing Seattle Center
Sat 05:16:43 PM 47.4614 -122.1644 171° South 332 382 12,300 2,311 Climbing Seattle Center
Sat 05:17:44 PM 47.3636 -122.1428 171° South 352 405 15,000 2,557 Climbing Seattle Center
Sat 05:18:45 PM 47.2617 -122.1211 172° South 369 425 17,500 2,164 Climbing Seattle Center
Sat 05:19:46 PM 47.1622 -122.1019 173° South 382 440 19,400 1,902 Climbing Seattle Center
Sat 05:20:48 PM 47.0536 -122.0794 172° South 396 456 21,400 2,049 Climbing Seattle Center
Sat 05:21:49 PM 46.9419 -122.0561 172° South 407 468 23,600 1,967 Climbing Seattle Center
Sat 05:22:50 PM 46.8039 -122.0294 172° South 420 483 25,400 1,672 Climbing Seattle Center
Sat 05:23:51 PM 46.6850 -122.0056 172° South 432 497 27,000 1,525 Climbing Seattle Center
Sat 05:24:52 PM 46.5650 -121.9714 169° South 442 509 28,500 1,574 Climbing Seattle Center
Sat 05:25:53 PM 46.4467 -121.9242 165° South 444 511 30,200 1,525 Climbing Seattle Center
Sat 05:26:54 PM 46.3289 -121.8783 165° South 444 511 31,600 1,377 Climbing Seattle Center
Sat 05:27:55 PM 46.2142 -121.8344 165° South 443 510 33,000 1,279 Climbing Seattle Center
Sat 05:28:56 PM 46.0981 -121.7892 165° South 437 503 34,200 984 Climbing Seattle Center
Sat 05:29:57 PM 45.9806 -121.7458 166° South 437 503 35,000 390 Climbing Seattle Center
Sat 05:30:59 PM 45.8381 -121.6903 165° South 443 510 35,000  Level Seattle Center
Sat 05:32:00 PM 45.7172 -121.6464 166° South 448 516 35,000  Level Seattle Center
Sat 05:33:01 PM 45.5972 -121.6017 165° South 449 517 35,000  Level Seattle Center
Sat 05:34:02 PM 45.4764 -121.5569 165° South 450 518 35,000  Level Seattle Center
Sat 05:35:03 PM 45.3558 -121.5125 165° South 449 517 35,000  Level Seattle Center
Sat 05:36:04 PM 45.2358 -121.4667 165° South 449 517 35,000  Level Seattle Center
Sat 05:37:05 PM 45.1153 -121.4231 166° South 450 518 35,000  Level Seattle Center
Sat 05:38:07 PM 44.9967 -121.3783 165° South 445 512 35,000  Level Seattle Center
Sat 05:39:08 PM 44.8753 -121.3358 166° South 450 518 35,000  Level Seattle Center
Sat 05:40:09 PM 44.7317 -121.2831 165° South 447 514 35,000  Level Seattle Center
Sat 05:41:10 PM 44.6192 -121.2428 166° South 448 516 35,000  Level Seattle Center
Sat 05:42:11 PM 44.4983 -121.1997 166° South 448 516 35,000  Level Seattle Center
Sat 05:43:12 PM 44.3769 -121.1572 166° South 448 516 35,000  Level Seattle Center
Sat 05:44:13 PM 44.2500 -121.1106 165° South 448 516 35,000  Level Seattle Center
Sat 05:45:14 PM 44.1272 -121.0681 166° South 455 524 35,000  Level Seattle Center
Sat 05:46:15 PM 44.0081 -121.0264 166° South 447 514 35,000  Level Seattle Center
Sat 05:47:16 PM 43.8878 -120.9819 165° South 448 516 35,000  Level Seattle Center
Sat 05:48:18 PM 43.7681 -120.9408 166° South 447 514 35,000  Level Seattle Center
Sat 05:49:19 PM 43.6236 -120.8917 166° South 446 513 35,000  Level Seattle Center
Sat 05:50:20 PM 43.5136 -120.8553 167° South 450 518 35,000  Level Seattle Center
Sat 05:51:21 PM 43.3922 -120.8128 166° South 451 519 35,000  Level Seattle Center
Sat 05:52:22 PM 43.2708 -120.7703 166° South 450 518 35,000  Level Seattle Center
Sat 05:53:23 PM 43.1500 -120.7308 167° South 448 516 35,000  Level Seattle Center
Sat 05:54:24 PM 43.0067 -120.6808 166° South 443 510 35,000  Level Seattle Center
Sat 05:55:25 PM 42.8878 -120.6400 166° South 440 506 35,000 -443 Level Seattle Center
Sat 05:56:26 PM 42.7694 -120.6011 166° South 438 504 34,100 -976 Descending Seattle Center
Sat 05:57:28 PM 42.6519 -120.5622 166° South 435 501 33,000 -537 Descending Seattle Center
Sat 05:58:29 PM 42.5353 -120.5233 166° South 432 497 33,000  Level Seattle Center
Sat 05:59:30 PM 42.4172 -120.4861 167° South 435 501 33,000  Level Seattle Center
Sat 06:00:31 PM 42.3006 -120.4511 167° South 431 496 33,000  Level Seattle Center
Sat 06:01:32 PM 42.1847 -120.4161 167° South 430 495 33,000  Level Seattle Center
Sat 06:02:33 PM 42.0661 -120.3817 168° South 434 499 33,000  Level Seattle Center
Sat 06:03:34 PM 41.9508 -120.3467 167° South 430 495 33,000  Level Seattle Center
Sat 06:04:35 PM 41.8325 -120.3114 167° South 433 498 33,000  Level Seattle Center
Sat 06:05:36 PM 41.7133 -120.2767 168° South 435 501 33,000  Level Seattle Center
Sat 06:06:37 PM 41.5914 -120.2425 168° South 444 511 33,000  Level Seattle Center
Sat 06:07:38 PM 41.4469 -120.2008 168° South 442 509 33,000  Level Seattle Center
Sat 06:08:39 PM 41.3269 -120.1656 168° South 442 509 33,000 -197 Level Seattle Center
Sat 06:09:40 PM 41.2061 -120.1289 167° South 443 510 32,600 -732 Descending Seattle Center
Sat 06:10:42 PM 41.0861 -120.0961 168° South 442 509 31,500 -1,024 Descending Seattle Center
Sat 06:11:43 PM 40.9681 -120.0614 167° South 436 502 30,500 -738 Descending Seattle Center
Sat 06:12:44 PM 40.8508 -120.0275 168° South 433 498 30,000 -263 Descending Seattle Center
Sat 06:13:37 PM 40.7583 -119.9978 166° South 434 499 30,000 -789 Level Oakland Center
Sat 06:14:38 PM 40.6358 -119.9642 168° South 447 514 28,500 -2,016 Descending Oakland Center
Sat 06:15:39 PM 40.5003 -119.9250 168° South 448 516 25,900 -2,459 Descending Oakland Center
Sat 06:16:40 PM 40.3836 -119.8933 168° South 431 496 23,500 -2,293 Descending Oakland Center
Sat 06:17:42 PM 40.2719 -119.8625 168° South 415 478 21,200 -2,146 Descending Oakland Center
Sat 06:18:43 PM 40.1650 -119.8331 168° South 398 458 19,100 -1,918 Descending Oakland Center
Sat 06:19:44 PM 40.0617 -119.8025 167° South 388 447 17,300 -1,869 Descending Oakland Center
Sat 06:20:45 PM 39.9508 -119.7739 169° South 357 411 15,300 -1,967 Descending Oakland Center
Sat 06:21:46 PM 39.8675 -119.7456 165° South 326 375 13,300 -1,918 Descending Oakland Center
Sat 06:22:47 PM 39.7839 -119.7278 171° South 320 368 11,400 -1,610 Descending Oakland Center
Sat 06:23:49 PM 39.7231 -119.7786 213° Southwest 271 312 10,000 -1,415 Descending Oakland Center
Sat 06:24:50 PM 39.6739 -119.8219 214° Southwest 236 272 8,500 -1,476 Descending Oakland Center
Sat 06:25:55 PM 39.6167 -119.7833 153° Southeast 200 230 6,900 -1,412 Descending Northern TRACON
Sat 06:26:49 PM 39.5667 -119.7667 166° South 182 209 5,700 -1,050 Descending Northern TRACON
Sat 06:27:55 PM 39.5167 -119.7667 180° South 163 188 4,800 -818 Descending Northern TRACON
Sat 06:29:00 PM 39.4991 -119.7681 247° West  Level Estimated
Sat 06:36:00 PM 39.4991 -119.7681 247° West  Level Estimated
Sat 06:37:00 PM 39.4991 -119.7681 247° West  Level Estimated

Login

Don't have an account? Register now (free) for customized features, flight alerts, and more!